Hauptseite
METAR-TAF:

METAR-TAF

Flughäfen :

Pohnpei, Mikronesien

Flughafen Pohnpei

Breite: 06-59N, Länge: 158-12E, Höhe: 2 m

Beobachtung

Neuester Wetterbericht von vor 27 Minuten, um 02:50 UTC
Wind 10 kt aus Ost
Temperatur 29°C
Luftfeuchtigkeit 84%
Luftdruck 1006 hPa
Sichtweite: 16.1 km
Durchbrochene Bewölkung in der Höhe von 1800 ft, Towering cumulus.
Durchbrochene Bewölkung in der Höhe von 13000 ft
Geschlossene Wolkendecke in der Höhe von 30000 ft
Regenschauer

METAR: PTPN 190250Z 08010KT 10SM -SHRA BKN018TCU BKN130 OVC300 29/26 A2972 RMK TCU ALQDS

Zeit: 14:17 (03:17 UTC)

Prognose

Neuester Wetterbericht von vor 3 Stunden und 47 Minuten, um 23:30 UTC
Gültige Prognose vom 19 um 00 UTC bis 19 um 24 UTC
Wind 10 kt aus Ost/Nordost
Sichtweite: 10 km
Aufgelockert bewölkt in der Höhe von 1800 ft
Aufgelockert bewölkt in der Höhe von 3000 ft
Schauer in der Nähe

TAF: PTPN 182330Z 1900/1924 07010KT P6SM VCSH SCT018 SCT030

Wetterbeobachtungen und Prognosen von mehr als 4000 Flughäfen (METAR und TAF Bericht).

Die verfügbaren Stationen werden durch gelbe und rote Markierungen auf der Karte dargestellt.

Führen Sie die Maus auf sie, um den Namen der Station zu sehen.

Darauf klicken, um die Beobachtung von Wetterbeobachtungen und Prognosen zu sehen.

Um die Karte zu ändern : klicken Sie auf den grünen Tasten mit einem schwarzen Kreuz Zum Vergrößern, auf den grünen Button mit einem Gedankenstrich zu verkleinern, oder auf die grünen Pfeile für benachbarte Karten.


METAR-TAF: